Time;durP1;ratioP1;P1;durP2;ratioP2;P2;SDS_P1;SDS_P2;PMS_P1;PMS_P2;Temp;Humidity;BMP_temperature;BMP_pressure;BME280_temperature;BME280_humidity;BME280_pressure;Samples;Min_cycle;Max_cycle;Signal;HPM_P1;HPM_P2
2023/01/17 00:02:06;;;;;;;;;;;25.50;99.90;;;;;;5093222;28;20005;-67
2023/01/17 00:10:06;;;;;;;;;;;25.80;99.90;;;;;;5093376;28;20001;-67
2023/01/17 00:12:32;;;;;;;;;;;25.70;99.90;;;;;;5093266;28;19908;-68
2023/01/17 00:14:59;;;;;;;;;;;25.60;99.90;;;;;;5095349;28;19908;-67
2023/01/17 00:17:27;;;;;;;;;;;25.60;99.90;;;;;;5096805;28;19912;-67
2023/01/17 01:35:11;;;;;;;;;;;30.00;99.90;;;;;;5095164;28;20052;-75
2023/01/17 01:37:38;;;;;;;;;;;30.20;99.90;;;;;;5095340;28;20382;-74
2023/01/17 01:40:05;;;;;;;;;;;29.70;99.90;;;;;;5095326;28;19908;-70
2023/01/17 01:42:32;;;;;;;;;;;29.40;99.90;;;;;;5095389;28;19919;-75
2023/01/17 01:44:59;;;;;;;;;;;29.60;99.90;;;;;;5094794;28;19977;-67
2023/01/17 01:47:30;;;;;;;;;;;29.90;99.90;;;;;;5127431;27;19935;-80
2023/01/17 01:49:58;;;;;;;;;;;29.90;99.90;;;;;;5095250;28;19931;-73
2023/01/17 01:52:25;;;;;;;;;;;29.90;99.90;;;;;;5095068;28;19908;-71
2023/01/17 01:54:54;;;;;;;;;;;30.10;99.90;;;;;;5094837;28;19977;-77
2023/01/17 01:57:37;;;;;;;;;;;29.80;99.90;;;;;;5094971;28;19909;-81
2023/01/17 02:00:07;;;;;;;;;;;29.60;99.90;;;;;;5094840;28;19924;-77
2023/01/17 02:02:34;;;;;;;;;;;29.20;99.90;;;;;;5095036;28;19916;-79
2023/01/17 02:05:01;;;;;;;;;;;28.70;99.90;;;;;;5094801;28;19915;-79
2023/01/17 02:07:33;;;;;;;;;;;28.50;99.90;;;;;;5094757;28;19908;-77
2023/01/17 02:10:00;;;;;;;;;;;28.20;99.90;;;;;;5095052;28;19915;-84
2023/01/17 02:12:27;;;;;;;;;;;28.10;99.90;;;;;;5093946;28;19908;-81
2023/01/17 02:14:54;;;;;;;;;;;27.80;99.90;;;;;;5094432;28;19912;-78
2023/01/17 02:17:26;;;;;;;;;;;27.70;99.90;;;;;;5094448;28;20363;-81
2023/01/17 02:20:08;;;;;;;;;;;27.50;99.90;;;;;;5094823;28;19912;-82
2023/01/17 02:22:53;;;;;;;;;;;27.40;99.90;;;;;;5094660;28;19912;-74
2023/01/17 02:25:38;;;;;;;;;;;27.50;99.90;;;;;;5100338;28;19915;-72
2023/01/17 02:28:23;;;;;;;;;;;27.40;99.90;;;;;;5099448;28;20378;-71
2023/01/17 02:31:00;;;;;;;;;;;27.50;99.90;;;;;;5094720;28;19961;-84
2023/01/17 02:33:38;;;;;;;;;;;27.60;99.90;;;;;;5094145;28;19908;-78
2023/01/17 02:36:10;;;;;;;;;;;27.70;99.90;;;;;;5095267;28;19958;-79
2023/01/17 02:38:46;;;;;;;;;;;27.50;99.90;;;;;;5094623;28;19908;-84
2023/01/17 02:41:15;;;;;;;;;;;27.40;99.90;;;;;;5095064;28;19916;-70
2023/01/17 02:43:42;;;;;;;;;;;27.20;99.90;;;;;;5094918;28;20278;-69
2023/01/17 02:46:10;;;;;;;;;;;27.30;99.90;;;;;;5095705;28;19908;-76
2023/01/17 02:48:37;;;;;;;;;;;27.20;99.90;;;;;;5095048;28;19908;-81
2023/01/17 02:51:22;;;;;;;;;;;27.00;99.90;;;;;;5099501;28;19912;-71
2023/01/17 02:53:58;;;;;;;;;;;27.00;99.90;;;;;;5095288;28;19958;-79
2023/01/17 02:56:27;;;;;;;;;;;27.10;99.90;;;;;;5095102;28;19908;-67
2023/01/17 02:59:12;;;;;;;;;;;27.10;99.90;;;;;;5095260;28;19924;-89
2023/01/17 03:01:47;;;;;;;;;;;27.00;99.90;;;;;;5093667;28;19920;-72
2023/01/17 03:04:36;;;;;;;;;;;27.00;99.90;;;;;;5094790;28;20366;-82
2023/01/17 03:07:05;;;;;;;;;;;27.20;99.90;;;;;;5094871;28;19908;-91
2023/01/17 03:09:32;;;;;;;;;;;27.10;99.90;;;;;;5096291;28;19908;-91
2023/01/17 03:12:03;;;;;;;;;;;27.00;99.90;;;;;;5097176;28;19912;-86
2023/01/17 03:14:33;;;;;;;;;;;26.90;99.90;;;;;;5096723;28;19944;-86
2023/01/17 03:16:59;;;;;;;;;;;26.90;99.90;;;;;;5128292;27;19958;-90
2023/01/17 03:19:26;;;;;;;;;;;26.90;99.90;;;;;;5097083;28;19915;-81
2023/01/17 03:21:53;;;;;;;;;;;26.90;99.90;;;;;;5097079;28;19959;-86
2023/01/17 03:24:19;;;;;;;;;;;26.70;99.90;;;;;;5095573;28;19908;-85
2023/01/17 03:26:46;;;;;;;;;;;26.70;99.90;;;;;;5099307;28;19908;-90
2023/01/17 03:29:13;;;;;;;;;;;26.80;99.90;;;;;;5097292;28;19915;-84
2023/01/17 03:31:40;;;;;;;;;;;26.70;99.90;;;;;;5096040;28;20000;-90
2023/01/17 03:34:07;;;;;;;;;;;26.80;99.90;;;;;;5094972;28;19997;-90
2023/01/17 03:36:34;;;;;;;;;;;26.90;99.90;;;;;;5094828;28;20416;-87
2023/01/17 03:39:01;;;;;;;;;;;27.00;99.90;;;;;;5095262;28;19913;-80
2023/01/17 03:41:28;;;;;;;;;;;26.80;99.90;;;;;;5095318;28;19959;-84
2023/01/17 03:43:55;;;;;;;;;;;26.70;99.90;;;;;;5093946;28;19908;-88
2023/01/17 03:46:25;;;;;;;;;;;26.60;99.90;;;;;;5109801;28;19908;-80
2023/01/17 03:48:52;;;;;;;;;;;26.70;99.90;;;;;;5101343;28;19908;-85
2023/01/17 03:51:19;;;;;;;;;;;26.80;99.90;;;;;;5098284;28;20028;-82
2023/01/17 03:53:46;;;;;;;;;;;26.80;99.90;;;;;;5097293;28;19931;-87
2023/01/17 03:56:13;;;;;;;;;;;26.90;99.90;;;;;;5096399;28;19908;-88
2023/01/17 03:58:40;;;;;;;;;;;27.00;99.90;;;;;;5097673;28;19920;-84
2023/01/17 04:01:06;;;;;;;;;;;26.90;99.90;;;;;;5096887;28;19916;-78
2023/01/17 04:03:33;;;;;;;;;;;27.00;99.90;;;;;;5096760;28;19915;-79
2023/01/17 04:06:00;;;;;;;;;;;26.80;99.90;;;;;;5097820;28;19908;-87
2023/01/17 04:08:26;;;;;;;;;;;26.80;99.90;;;;;;5097335;28;19915;-80
2023/01/17 04:10:53;;;;;;;;;;;26.80;99.90;;;;;;5097274;28;19977;-83
2023/01/17 04:13:20;;;;;;;;;;;26.90;99.90;;;;;;5096733;28;19912;-85
2023/01/17 04:15:47;;;;;;;;;;;26.90;99.90;;;;;;5097040;28;20002;-86
2023/01/17 04:18:15;;;;;;;;;;;26.90;99.90;;;;;;5096518;28;20019;-83
2023/01/17 04:20:42;;;;;;;;;;;26.80;99.90;;;;;;5096833;28;19919;-85
2023/01/17 04:23:09;;;;;;;;;;;26.70;99.90;;;;;;5096558;28;20377;-82
2023/01/17 04:25:35;;;;;;;;;;;26.60;99.90;;;;;;5096603;28;20644;-86
2023/01/17 04:28:03;;;;;;;;;;;26.50;99.90;;;;;;5096892;28;19908;-85
2023/01/17 04:30:30;;;;;;;;;;;26.70;99.90;;;;;;5096982;28;20002;-85
2023/01/17 04:32:57;;;;;;;;;;;26.70;99.90;;;;;;5096739;28;20323;-84
2023/01/17 04:35:24;;;;;;;;;;;26.70;99.90;;;;;;5096067;28;20267;-85
2023/01/17 04:37:51;;;;;;;;;;;26.60;99.90;;;;;;5096943;28;19931;-86
2023/01/17 04:40:18;;;;;;;;;;;26.60;99.90;;;;;;5097020;28;20049;-85
2023/01/17 04:42:44;;;;;;;;;;;26.80;99.90;;;;;;5096522;28;20326;-85
2023/01/17 04:45:11;;;;;;;;;;;26.70;99.90;;;;;;5096497;28;19915;-87
2023/01/17 04:47:38;;;;;;;;;;;26.50;99.90;;;;;;5096443;28;19915;-86
2023/01/17 04:50:05;;;;;;;;;;;26.50;99.90;;;;;;5096531;28;19914;-82
2023/01/17 04:52:32;;;;;;;;;;;26.40;99.90;;;;;;5096591;28;19915;-86
2023/01/17 04:54:58;;;;;;;;;;;26.40;99.90;;;;;;5096478;28;20007;-88
2023/01/17 04:57:25;;;;;;;;;;;26.40;99.90;;;;;;5098802;28;19909;-82
2023/01/17 04:59:53;;;;;;;;;;;26.50;99.90;;;;;;5103265;28;19927;-83
2023/01/17 05:02:19;;;;;;;;;;;26.40;99.90;;;;;;5101339;28;19927;-80
2023/01/17 05:04:49;;;;;;;;;;;26.40;99.90;;;;;;5103662;28;19908;-83
2023/01/17 05:07:16;;;;;;;;;;;26.20;99.90;;;;;;5112332;28;19909;-71
2023/01/17 05:09:42;;;;;;;;;;;26.20;99.90;;;;;;5103399;28;19915;-77
2023/01/17 05:12:09;;;;;;;;;;;26.10;99.90;;;;;;5097002;28;19991;-73
2023/01/17 05:14:36;;;;;;;;;;;26.10;99.90;;;;;;5096232;28;20366;-80
2023/01/17 05:17:02;;;;;;;;;;;26.00;99.90;;;;;;5096578;28;19908;-85
2023/01/17 05:19:29;;;;;;;;;;;25.90;99.90;;;;;;5095789;28;19914;-78
2023/01/17 05:22:02;;;;;;;;;;;25.90;99.90;;;;;;5095986;28;19922;-74
2023/01/17 05:24:30;;;;;;;;;;;25.90;99.90;;;;;;5126592;27;19936;-79
2023/01/17 05:27:01;;;;;;;;;;;26.00;99.90;;;;;;5096179;28;19961;-81
2023/01/17 05:29:29;;;;;;;;;;;25.80;99.90;;;;;;5097392;28;19912;-84
2023/01/17 05:31:55;;;;;;;;;;;25.80;99.90;;;;;;5097365;28;19908;-75
2023/01/17 05:34:22;;;;;;;;;;;25.80;99.90;;;;;;5098097;28;19907;-78
2023/01/17 05:36:49;;;;;;;;;;;25.70;99.90;;;;;;5097840;28;19908;-87
2023/01/17 05:39:15;;;;;;;;;;;25.70;99.90;;;;;;5099536;28;19930;-84
2023/01/17 05:41:42;;;;;;;;;;;25.80;99.90;;;;;;5099695;28;19923;-84
2023/01/17 05:44:08;;;;;;;;;;;25.80;99.90;;;;;;5099955;28;19932;-87
2023/01/17 05:46:35;;;;;;;;;;;25.70;99.90;;;;;;5101705;28;19931;-86
2023/01/17 05:49:02;;;;;;;;;;;25.70;99.90;;;;;;5098271;28;19908;-89
2023/01/17 05:51:28;;;;;;;;;;;25.70;99.90;;;;;;5095591;28;19908;-91
2023/01/17 05:53:55;;;;;;;;;;;25.70;99.90;;;;;;5097357;28;19911;-86
2023/01/17 05:56:22;;;;;;;;;;;25.70;99.90;;;;;;5097032;28;19908;-87
2023/01/17 05:58:48;;;;;;;;;;;25.60;99.90;;;;;;5096245;28;19924;-92
2023/01/17 06:01:16;;;;;;;;;;;25.50;99.90;;;;;;5093947;28;19965;-67
2023/01/17 06:03:43;;;;;;;;;;;25.60;99.90;;;;;;5092530;28;20323;-77
2023/01/17 06:06:12;;;;;;;;;;;25.60;99.90;;;;;;5093243;28;19958;-73
2023/01/17 06:08:39;;;;;;;;;;;25.70;99.90;;;;;;5095019;28;19919;-68
2023/01/17 06:11:05;;;;;;;;;;;25.70;99.90;;;;;;5094287;28;19908;-78
2023/01/17 06:13:32;;;;;;;;;;;25.60;99.90;;;;;;5094079;28;19915;-82
2023/01/17 06:16:02;;;;;;;;;;;25.60;99.90;;;;;;5093674;28;19916;-75
2023/01/17 06:18:31;;;;;;;;;;;25.60;99.90;;;;;;5093039;28;19961;-75
2023/01/17 06:20:58;;;;;;;;;;;25.70;99.90;;;;;;5093408;28;19916;-67
2023/01/17 06:23:27;;;;;;;;;;;25.80;99.90;;;;;;5092986;28;20293;-80
2023/01/17 06:25:54;;;;;;;;;;;25.70;99.90;;;;;;5094514;28;19975;-68
2023/01/17 06:28:21;;;;;;;;;;;25.60;99.90;;;;;;5101140;28;19915;-69
2023/01/17 06:30:48;;;;;;;;;;;25.70;99.90;;;;;;5099434;28;19984;-68
2023/01/17 06:33:16;;;;;;;;;;;25.70;99.90;;;;;;5098038;28;20365;-68
2023/01/17 06:35:49;;;;;;;;;;;25.50;99.90;;;;;;5099297;28;20461;-68
2023/01/17 06:38:16;;;;;;;;;;;25.50;99.90;;;;;;5099062;28;19948;-68
2023/01/17 06:40:43;;;;;;;;;;;25.40;99.90;;;;;;5099239;28;19916;-68
2023/01/17 06:43:09;;;;;;;;;;;25.40;99.90;;;;;;5098497;28;19912;-72
2023/01/17 06:45:36;;;;;;;;;;;25.40;99.90;;;;;;5097737;28;19908;-73
2023/01/17 06:48:03;;;;;;;;;;;25.30;99.90;;;;;;5097380;28;19912;-72
2023/01/17 06:50:31;;;;;;;;;;;25.30;99.90;;;;;;5095234;28;20397;-70
2023/01/17 06:53:02;;;;;;;;;;;25.20;99.90;;;;;;5092233;28;19912;-70
2023/01/17 06:55:30;;;;;;;;;;;25.30;99.90;;;;;;5093097;28;19987;-73
2023/01/17 06:57:58;;;;;;;;;;;25.20;99.90;;;;;;5095783;28;19909;-80
2023/01/17 07:00:25;;;;;;;;;;;25.20;99.90;;;;;;5094993;28;19924;-73
2023/01/17 07:02:55;;;;;;;;;;;25.10;99.90;;;;;;5099666;28;19984;-72
2023/01/17 07:05:23;;;;;;;;;;;25.10;99.90;;;;;;5099461;28;19915;-67
2023/01/17 07:07:49;;;;;;;;;;;25.00;99.90;;;;;;5098192;28;19929;-69
2023/01/17 07:10:16;;;;;;;;;;;25.00;99.90;;;;;;5098449;28;19999;-67
2023/01/17 07:12:43;;;;;;;;;;;25.00;99.90;;;;;;5098776;28;19915;-83
2023/01/17 07:15:10;;;;;;;;;;;24.90;99.90;;;;;;5093099;28;19916;-74
2023/01/17 07:17:36;;;;;;;;;;;24.90;99.90;;;;;;5092581;28;20016;-87
2023/01/17 07:20:03;;;;;;;;;;;24.90;99.90;;;;;;5092762;28;19915;-86
2023/01/17 07:22:30;;;;;;;;;;;24.80;99.90;;;;;;5093061;28;19914;-80
2023/01/17 07:24:59;;;;;;;;;;;24.90;99.90;;;;;;5088762;28;19999;-78
2023/01/17 07:27:29;;;;;;;;;;;24.90;99.90;;;;;;5090581;28;20298;-78
2023/01/17 07:29:56;;;;;;;;;;;24.90;99.90;;;;;;5122710;28;19918;-72
2023/01/17 07:32:25;;;;;;;;;;;24.80;99.90;;;;;;5086830;28;19912;-81
2023/01/17 07:34:52;;;;;;;;;;;24.80;99.90;;;;;;5116270;28;19977;-80
2023/01/17 07:37:19;;;;;;;;;;;24.70;99.90;;;;;;5084560;28;19919;-80
2023/01/17 07:39:46;;;;;;;;;;;24.70;99.90;;;;;;5075428;28;19912;-76
2023/01/17 07:42:12;;;;;;;;;;;24.70;99.90;;;;;;5004335;28;20014;-82
2023/01/17 07:44:42;;;;;;;;;;;24.70;99.90;;;;;;5011986;28;19921;-80
2023/01/17 07:47:09;;;;;;;;;;;24.70;99.90;;;;;;5019575;28;19944;-75
2023/01/17 07:49:36;;;;;;;;;;;24.60;99.90;;;;;;5006399;28;20287;-69
2023/01/17 07:52:03;;;;;;;;;;;24.60;99.90;;;;;;5004494;28;20087;-83
2023/01/17 07:54:29;;;;;;;;;;;24.60;99.90;;;;;;5004612;28;20088;-86
2023/01/17 07:56:56;;;;;;;;;;;24.60;99.90;;;;;;5005753;28;20067;-90
2023/01/17 07:59:22;;;;;;;;;;;24.50;99.90;;;;;;5020698;28;19956;-86
2023/01/17 08:01:49;;;;;;;;;;;24.40;99.90;;;;;;5024044;28;20396;-82
2023/01/17 08:04:16;;;;;;;;;;;24.40;99.90;;;;;;5025113;28;19914;-89
2023/01/17 08:06:50;;;;;;;;;;;24.30;99.90;;;;;;5025088;28;19913;-75
2023/01/17 08:09:17;;;;;;;;;;;24.30;99.90;;;;;;5023573;28;19913;-83
2023/01/17 08:11:43;;;;;;;;;;;24.20;99.90;;;;;;5023560;28;20008;-79
2023/01/17 08:14:10;;;;;;;;;;;24.20;99.90;;;;;;5023917;28;19913;-76
2023/01/17 08:16:38;;;;;;;;;;;24.10;99.90;;;;;;5023606;28;19913;-83
2023/01/17 08:19:05;;;;;;;;;;;24.00;99.90;;;;;;5023955;28;19913;-77
2023/01/17 08:21:32;;;;;;;;;;;24.10;99.90;;;;;;5023707;28;19925;-77
2023/01/17 08:23:58;;;;;;;;;;;24.00;99.90;;;;;;5022942;28;19917;-81
2023/01/17 08:26:26;;;;;;;;;;;24.00;99.90;;;;;;5024027;28;20451;-79
2023/01/17 08:28:59;;;;;;;;;;;23.90;99.90;;;;;;5023985;28;19915;-85
2023/01/17 08:31:26;;;;;;;;;;;23.90;99.90;;;;;;5024758;28;20753;-86
2023/01/17 08:33:52;;;;;;;;;;;23.90;99.90;;;;;;5023816;28;19922;-82
2023/01/17 08:36:19;;;;;;;;;;;23.80;99.90;;;;;;5026494;28;19913;-83
2023/01/17 08:38:46;;;;;;;;;;;23.90;99.90;;;;;;5029042;28;20004;-81
2023/01/17 08:41:13;;;;;;;;;;;23.80;99.90;;;;;;5034802;28;19921;-82
2023/01/17 08:43:39;;;;;;;;;;;23.80;99.90;;;;;;5036055;28;19960;-83
2023/01/17 08:46:06;;;;;;;;;;;23.80;99.90;;;;;;5037057;28;20364;-77
2023/01/17 08:48:33;;;;;;;;;;;23.80;99.90;;;;;;5035744;28;19909;-73
2023/01/17 08:51:00;;;;;;;;;;;23.80;99.90;;;;;;5035171;28;19917;-69
2023/01/17 08:53:27;;;;;;;;;;;23.70;99.90;;;;;;5021870;28;19956;-69
2023/01/17 08:55:58;;;;;;;;;;;23.70;99.90;;;;;;5015719;28;19913;-70
2023/01/17 08:58:26;;;;;;;;;;;23.70;99.90;;;;;;5011133;28;19925;-69
2023/01/17 09:00:54;;;;;;;;;;;23.60;99.90;;;;;;5007412;28;20661;-79
2023/01/17 09:03:21;;;;;;;;;;;23.60;99.90;;;;;;5008569;28;19917;-69
2023/01/17 09:05:47;;;;;;;;;;;23.60;99.90;;;;;;5012295;28;19952;-68
2023/01/17 09:08:14;;;;;;;;;;;23.60;99.90;;;;;;5020119;28;19928;-72
2023/01/17 09:10:41;;;;;;;;;;;23.60;99.90;;;;;;5013870;28;20608;-69
2023/01/17 09:13:08;;;;;;;;;;;23.60;99.90;;;;;;5007437;28;19913;-79
2023/01/17 09:15:34;;;;;;;;;;;23.50;99.90;;;;;;5007525;28;19918;-69
2023/01/17 09:18:04;;;;;;;;;;;23.50;99.90;;;;;;5007583;28;19917;-74
2023/01/17 09:20:31;;;;;;;;;;;23.50;99.90;;;;;;5006384;28;19960;-76
2023/01/17 09:23:01;;;;;;;;;;;23.40;99.90;;;;;;5006534;28;19996;-76
2023/01/17 09:25:30;;;;;;;;;;;23.40;99.90;;;;;;5006287;28;20454;-81
2023/01/17 09:27:57;;;;;;;;;;;23.40;99.90;;;;;;5007526;28;19995;-68
2023/01/17 09:30:24;;;;;;;;;;;23.50;99.90;;;;;;5006215;28;20854;-71
2023/01/17 09:32:54;;;;;;;;;;;23.40;99.90;;;;;;5006131;28;20371;-74
2023/01/17 09:35:21;;;;;;;;;;;23.40;99.90;;;;;;5006043;28;19965;-77
2023/01/17 09:37:50;;;;;;;;;;;23.40;99.90;;;;;;5006043;28;19913;-77
2023/01/17 09:40:19;;;;;;;;;;;23.40;99.90;;;;;;5005934;28;19999;-83
2023/01/17 09:42:49;;;;;;;;;;;23.40;99.90;;;;;;5006616;28;20590;-87
2023/01/17 09:45:17;;;;;;;;;;;23.30;99.90;;;;;;5007075;28;20327;-85
2023/01/17 09:47:45;;;;;;;;;;;23.30;99.90;;;;;;5007036;28;20016;-77
2023/01/17 09:50:31;;;;;;;;;;;23.30;99.90;;;;;;5006611;28;19918;-79
2023/01/17 09:53:00;;;;;;;;;;;23.30;99.90;;;;;;5015612;28;20664;-78
2023/01/17 09:55:34;;;;;;;;;;;23.30;99.90;;;;;;5027415;28;19920;-79
2023/01/17 09:58:10;;;;;;;;;;;23.30;99.90;;;;;;5029653;28;19961;-89
2023/01/17 10:00:40;;;;;;;;;;;23.20;99.90;;;;;;5032727;28;19924;-82
2023/01/17 10:03:13;;;;;;;;;;;23.20;99.90;;;;;;5031155;28;19917;-78
2023/01/17 10:05:58;;;;;;;;;;;23.20;99.90;;;;;;5032971;28;19924;-67
2023/01/17 10:08:56;;;;;;;;;;;23.30;99.90;;;;;;5033079;28;19920;-68
2023/01/17 10:11:23;;;;;;;;;;;23.20;99.90;;;;;;5010070;28;19960;-69
2023/01/17 10:13:52;;;;;;;;;;;23.20;99.90;;;;;;5032680;28;19909;-72
2023/01/17 10:16:48;;;;;;;;;;;23.20;99.90;;;;;;5031800;28;19971;-70
2023/01/17 10:19:40;;;;;;;;;;;23.20;99.90;;;;;;5023439;28;19913;-71
2023/01/17 10:22:24;;;;;;;;;;;23.20;99.90;;;;;;5032702;28;19917;-70
2023/01/17 10:25:00;;;;;;;;;;;23.20;99.90;;;;;;5031422;28;20395;-69
2023/01/17 10:27:34;;;;;;;;;;;23.20;99.90;;;;;;5042322;28;19917;-75
2023/01/17 10:30:02;;;;;;;;;;;23.20;99.90;;;;;;5035565;28;20626;-69
2023/01/17 10:32:31;;;;;;;;;;;23.20;99.90;;;;;;5031987;28;19917;-72
2023/01/17 10:35:02;;;;;;;;;;;23.20;99.90;;;;;;5031997;28;19982;-77
2023/01/17 10:37:39;;;;;;;;;;;23.10;99.90;;;;;;5031731;28;19913;-67
2023/01/17 10:40:23;;;;;;;;;;;23.20;99.90;;;;;;5032031;28;19913;-69
2023/01/17 10:43:15;;;;;;;;;;;23.20;99.90;;;;;;5013491;28;19917;-75
2023/01/17 10:45:48;;;;;;;;;;;23.10;99.90;;;;;;5029639;28;19917;-76
2023/01/17 10:48:29;;;;;;;;;;;23.10;99.90;;;;;;5032352;28;19913;-75
2023/01/17 10:50:56;;;;;;;;;;;23.10;99.90;;;;;;5032617;28;19909;-78
2023/01/17 10:53:35;;;;;;;;;;;23.10;99.90;;;;;;5031526;28;20330;-87
2023/01/17 10:56:02;;;;;;;;;;;23.10;99.90;;;;;;5032146;28;20286;-86
2023/01/17 10:58:30;;;;;;;;;;;23.10;99.90;;;;;;5029585;28;19986;-86
2023/01/17 11:01:01;;;;;;;;;;;23.10;99.90;;;;;;5029013;28;20372;-73
2023/01/17 11:03:28;;;;;;;;;;;23.10;99.90;;;;;;5028641;28;20022;-75
2023/01/17 11:06:13;;;;;;;;;;;23.10;99.90;;;;;;5027661;28;19929;-91
2023/01/17 11:08:56;;;;;;;;;;;23.10;99.90;;;;;;5027420;28;19935;-84
2023/01/17 11:11:25;;;;;;;;;;;23.10;99.90;;;;;;5026202;28;19967;-87
2023/01/17 11:13:53;;;;;;;;;;;23.10;99.90;;;;;;5026793;28;19939;-78
2023/01/17 11:16:20;;;;;;;;;;;23.20;99.90;;;;;;5029100;28;19928;-81
2023/01/17 11:18:49;;;;;;;;;;;23.20;99.90;;;;;;5030673;28;20000;-72
2023/01/17 11:21:17;;;;;;;;;;;23.10;99.90;;;;;;5029297;28;19936;-90
2023/01/17 11:23:44;;;;;;;;;;;23.20;99.90;;;;;;5029040;28;19924;-80
2023/01/17 11:26:20;;;;;;;;;;;23.20;99.90;;;;;;5029672;28;19964;-89
2023/01/17 11:28:46;;;;;;;;;;;23.10;99.90;;;;;;5029155;28;19945;-85
2023/01/17 11:31:15;;;;;;;;;;;23.10;99.90;;;;;;5026619;28;19955;-80
2023/01/17 11:33:55;;;;;;;;;;;23.10;99.90;;;;;;5027200;28;20016;-87
2023/01/17 11:36:23;;;;;;;;;;;23.00;99.90;;;;;;5027161;28;20437;-74
2023/01/17 11:39:03;;;;;;;;;;;23.00;99.90;;;;;;5025602;28;19920;-81
2023/01/17 11:41:36;;;;;;;;;;;23.00;99.90;;;;;;5033006;28;19917;-83
2023/01/17 11:44:18;;;;;;;;;;;23.00;99.90;;;;;;5034018;28;19909;-85
2023/01/17 11:46:45;;;;;;;;;;;23.00;99.90;;;;;;5041532;28;19943;-79
2023/01/17 11:49:22;;;;;;;;;;;23.00;99.90;;;;;;5048910;28;20347;-70
2023/01/17 11:51:54;;;;;;;;;;;23.00;99.90;;;;;;5036221;28;19909;-88
2023/01/17 11:54:27;;;;;;;;;;;22.90;99.90;;;;;;5014916;28;20284;-87
2023/01/17 11:57:00;;;;;;;;;;;22.90;99.90;;;;;;5018243;28;19910;-86
2023/01/17 11:59:33;;;;;;;;;;;23.00;99.90;;;;;;5017404;28;19922;-87
2023/01/17 12:02:00;;;;;;;;;;;22.90;99.90;;;;;;5017646;28;19924;-84
2023/01/17 12:04:33;;;;;;;;;;;22.90;99.90;;;;;;5015776;28;19944;-85
2023/01/17 12:07:15;;;;;;;;;;;22.90;99.90;;;;;;5013479;28;20300;-69
2023/01/17 12:09:50;;;;;;;;;;;23.00;99.90;;;;;;5014974;28;19909;-68
2023/01/17 12:15:22;;;;;;;;;;;22.90;99.90;;;;;;5017628;28;19955;-74
2023/01/17 12:18:14;;;;;;;;;;;22.90;99.90;;;;;;5017927;28;20268;-74
2023/01/17 12:20:40;;;;;;;;;;;23.00;99.90;;;;;;5017870;28;19953;-70
2023/01/17 12:23:13;;;;;;;;;;;23.00;99.90;;;;;;5017614;28;19916;-74
2023/01/17 12:25:42;;;;;;;;;;;23.00;99.90;;;;;;5017459;28;19910;-86
2023/01/17 12:28:21;;;;;;;;;;;23.00;99.90;;;;;;5017833;28;19910;-81
2023/01/17 12:31:03;;;;;;;;;;;23.00;99.90;;;;;;5017408;28;19914;-80
2023/01/17 12:33:46;;;;;;;;;;;23.00;99.90;;;;;;5017508;28;19909;-69
2023/01/17 12:36:33;;;;;;;;;;;23.00;99.90;;;;;;5017633;28;19914;-68
2023/01/17 12:39:02;;;;;;;;;;;23.00;99.90;;;;;;5017670;28;19916;-68
2023/01/17 12:41:34;;;;;;;;;;;23.00;99.90;;;;;;5017058;28;20398;-80
2023/01/17 12:44:01;;;;;;;;;;;23.00;99.90;;;;;;5016873;28;20398;-82
2023/01/17 12:46:41;;;;;;;;;;;22.90;99.90;;;;;;5017054;28;19909;-70
2023/01/17 12:49:08;;;;;;;;;;;22.90;99.90;;;;;;5017301;28;19910;-68
2023/01/17 12:51:39;;;;;;;;;;;22.90;99.90;;;;;;5016842;28;20352;-85
2023/01/17 12:54:17;;;;;;;;;;;22.90;99.90;;;;;;5035035;28;19910;-67
2023/01/17 12:57:05;;;;;;;;;;;22.90;99.90;;;;;;5036911;28;19966;-68
2023/01/17 12:59:37;;;;;;;;;;;22.90;99.90;;;;;;5035946;28;19928;-74
2023/01/17 13:02:14;;;;;;;;;;;22.90;99.90;;;;;;5036339;28;19924;-69
2023/01/17 13:04:41;;;;;;;;;;;22.90;99.90;;;;;;5018496;28;19909;-79
2023/01/17 13:07:23;;;;;;;;;;;22.80;99.90;;;;;;5036706;28;19915;-85
2023/01/17 13:10:02;;;;;;;;;;;22.80;99.90;;;;;;5039637;28;19909;-68
2023/01/17 13:12:31;;;;;;;;;;;22.80;99.90;;;;;;5039294;28;19919;-74
2023/01/17 13:15:00;;;;;;;;;;;22.80;99.90;;;;;;5036583;28;20010;-74
2023/01/17 13:17:36;;;;;;;;;;;22.80;99.90;;;;;;5035920;28;19913;-82
2023/01/17 13:20:13;;;;;;;;;;;22.80;99.90;;;;;;5036210;28;19909;-82
2023/01/17 13:22:41;;;;;;;;;;;22.80;99.90;;;;;;5034670;28;19917;-73
2023/01/17 13:25:19;;;;;;;;;;;22.80;99.90;;;;;;5035995;28;19909;-72
2023/01/17 13:28:04;;;;;;;;;;;22.80;99.90;;;;;;5035776;28;19909;-68
2023/01/17 13:30:42;;;;;;;;;;;22.80;99.90;;;;;;5036251;28;19976;-72
2023/01/17 13:33:20;;;;;;;;;;;22.80;99.90;;;;;;5035595;28;20422;-69
2023/01/17 13:35:50;;;;;;;;;;;22.80;99.90;;;;;;5035846;28;20356;-75
2023/01/17 13:38:32;;;;;;;;;;;22.80;99.90;;;;;;5035930;28;19916;-76
2023/01/17 13:41:01;;;;;;;;;;;22.80;99.90;;;;;;5035769;28;20272;-78
2023/01/17 13:43:30;;;;;;;;;;;22.90;99.90;;;;;;5050621;28;19909;-77
2023/01/17 13:45:58;;;;;;;;;;;22.90;99.90;;;;;;5035606;28;19909;-76
2023/01/17 13:48:27;;;;;;;;;;;22.80;99.90;;;;;;5035950;28;19909;-75
2023/01/17 13:50:57;;;;;;;;;;;22.90;99.90;;;;;;5035952;28;19963;-79
2023/01/17 13:53:27;;;;;;;;;;;22.80;99.90;;;;;;5035382;28;19952;-77
2023/01/17 13:55:59;;;;;;;;;;;22.80;99.90;;;;;;5035539;28;20023;-71
2023/01/17 13:58:28;;;;;;;;;;;22.80;99.90;;;;;;5036317;28;19928;-84
2023/01/17 14:00:55;;;;;;;;;;;22.80;99.90;;;;;;5037206;28;19928;-82
2023/01/17 14:03:39;;;;;;;;;;;22.80;99.90;;;;;;5036011;28;20359;-85
2023/01/17 14:06:25;;;;;;;;;;;22.80;99.90;;;;;;5036801;28;19967;-83
2023/01/17 14:08:52;;;;;;;;;;;22.80;99.90;;;;;;5037623;28;20344;-87
2023/01/17 14:11:19;;;;;;;;;;;22.70;99.90;;;;;;5037546;28;20330;-83
2023/01/17 14:13:45;;;;;;;;;;;22.70;99.90;;;;;;5039329;28;19931;-87
2023/01/17 14:16:15;;;;;;;;;;;22.70;99.90;;;;;;5040494;28;19970;-87
2023/01/17 14:18:43;;;;;;;;;;;22.70;99.90;;;;;;5038622;28;19916;-87
2023/01/17 14:21:19;;;;;;;;;;;22.70;99.90;;;;;;5036855;28;19924;-86
2023/01/17 14:23:58;;;;;;;;;;;22.80;99.90;;;;;;5035520;28;19910;-87
2023/01/17 14:26:31;;;;;;;;;;;22.70;99.90;;;;;;5035545;28;19941;-88
2023/01/17 14:29:17;;;;;;;;;;;22.70;99.90;;;;;;5035421;28;19909;-86
2023/01/17 14:31:44;;;;;;;;;;;22.70;99.90;;;;;;5045240;28;19893;-75
2023/01/17 14:34:11;;;;;;;;;;;22.70;99.90;;;;;;5050957;28;19913;-85
2023/01/17 14:36:38;;;;;;;;;;;22.70;99.90;;;;;;5035153;28;19916;-67
2023/01/17 14:39:19;;;;;;;;;;;22.70;99.90;;;;;;5034649;28;19909;-67
2023/01/17 14:41:46;;;;;;;;;;;22.70;99.90;;;;;;5034751;28;19959;-67
2023/01/17 14:44:13;;;;;;;;;;;22.70;99.90;;;;;;5033831;28;19909;-67
2023/01/17 14:46:39;;;;;;;;;;;22.70;99.90;;;;;;5034469;28;19916;-79
2023/01/17 14:49:19;;;;;;;;;;;22.70;99.90;;;;;;5034158;28;20249;-67
2023/01/17 14:52:05;;;;;;;;;;;22.60;99.90;;;;;;5033851;28;19971;-68
2023/01/17 14:54:32;;;;;;;;;;;22.50;99.90;;;;;;5033737;28;19988;-70
2023/01/17 14:57:17;;;;;;;;;;;22.50;99.90;;;;;;5034054;28;20368;-67
2023/01/17 14:59:45;;;;;;;;;;;22.50;99.90;;;;;;5033504;28;20471;-68
2023/01/17 15:02:17;;;;;;;;;;;22.40;99.90;;;;;;5032807;28;20287;-67
2023/01/17 15:04:44;;;;;;;;;;;22.40;99.90;;;;;;5033966;28;19913;-68
2023/01/17 15:07:14;;;;;;;;;;;22.40;99.90;;;;;;5033860;28;20344;-70
2023/01/17 15:09:41;;;;;;;;;;;22.30;99.90;;;;;;5033875;28;19992;-67
2023/01/17 15:12:09;;;;;;;;;;;22.40;99.90;;;;;;5033481;28;19963;-69
2023/01/17 15:14:37;;;;;;;;;;;22.40;99.90;;;;;;5033674;28;19932;-68
2023/01/17 15:17:23;;;;;;;;;;;22.40;99.90;;;;;;5033730;28;20299;-68
2023/01/17 15:19:57;;;;;;;;;;;22.40;99.90;;;;;;5033703;28;19910;-68
2023/01/17 15:22:24;;;;;;;;;;;22.50;99.90;;;;;;5033731;28;19917;-72
2023/01/17 15:24:51;;;;;;;;;;;22.50;99.90;;;;;;5033846;28;19914;-68
2023/01/17 15:27:18;;;;;;;;;;;22.40;99.90;;;;;;5033417;28;19955;-69
2023/01/17 15:29:46;;;;;;;;;;;22.40;99.90;;;;;;5034160;28;19944;-68
2023/01/17 15:32:23;;;;;;;;;;;22.40;99.90;;;;;;5033341;28;20288;-67
2023/01/17 15:34:50;;;;;;;;;;;22.40;99.90;;;;;;5033822;28;19921;-68
2023/01/17 15:37:27;;;;;;;;;;;22.30;99.90;;;;;;5034140;28;19941;-68
2023/01/17 15:40:01;;;;;;;;;;;22.30;99.90;;;;;;5033844;28;19909;-67
2023/01/17 15:42:30;;;;;;;;;;;22.30;99.90;;;;;;5033306;28;20000;-68
2023/01/17 15:44:59;;;;;;;;;;;22.30;99.90;;;;;;5035075;28;19961;-67
2023/01/17 15:47:31;;;;;;;;;;;22.30;99.90;;;;;;5037964;28;19952;-68
2023/01/17 15:49:58;;;;;;;;;;;22.30;99.90;;;;;;5038536;28;19909;-67
2023/01/17 15:52:25;;;;;;;;;;;22.30;99.90;;;;;;5046585;28;19913;-73
2023/01/17 15:54:53;;;;;;;;;;;22.30;99.90;;;;;;5058610;28;19913;-69
2023/01/17 15:57:23;;;;;;;;;;;22.30;99.90;;;;;;5038017;28;19916;-67
2023/01/17 15:59:52;;;;;;;;;;;22.30;99.90;;;;;;5037402;28;19921;-67